Time;durP1;ratioP1;P1;durP2;ratioP2;P2;SDS_P1;SDS_P2;PMS_P1;PMS_P2;Temp;Humidity;BMP_temperature;BMP_pressure;BME280_temperature;BME280_humidity;BME280_pressure;Samples;Min_cycle;Max_cycle;Signal;HPM_P1;HPM_P2
2022/11/08 00:02:13;;;;;;;32.40;19.08;;;7.90;99.90;;;;;;6238517;23;20039;-86
2022/11/08 00:04:39;;;;;;;37.70;19.83;;;7.90;99.90;;;;;;6218370;23;20036;-86
2022/11/08 00:15:18;;;;;;;37.90;18.73;;;7.80;99.90;;;;;;6231175;23;20008;-86
2022/11/08 00:17:44;;;;;;;32.67;18.33;;;7.70;99.90;;;;;;6201265;23;20035;-86
2022/11/08 00:20:10;;;;;;;37.00;18.63;;;7.70;99.90;;;;;;6177819;23;20036;-87
2022/11/08 00:22:36;;;;;;;35.75;18.92;;;7.70;99.90;;;;;;6229054;23;20447;-86
2022/11/08 00:25:02;;;;;;;42.28;19.92;;;7.60;99.90;;;;;;6202268;23;20004;-87
2022/11/08 00:27:28;;;;;;;40.65;20.05;;;7.60;99.90;;;;;;6229006;23;20331;-87
2022/11/08 00:29:54;;;;;;;36.33;18.92;;;7.60;99.90;;;;;;6227286;23;20019;-87
2022/11/08 00:32:22;;;;;;;40.28;19.45;;;7.60;99.90;;;;;;6229294;23;20078;-84
2022/11/08 00:34:49;;;;;;;35.90;19.88;;;7.60;99.90;;;;;;6230617;23;20450;-87
2022/11/08 00:37:15;;;;;;;38.53;19.85;;;7.50;99.90;;;;;;6204968;23;20142;-86
2022/11/08 00:39:42;;;;;;;36.58;20.80;;;7.50;99.90;;;;;;6234405;23;20008;-85
2022/11/08 00:42:08;;;;;;;37.53;19.42;;;7.50;99.90;;;;;;6187473;23;20008;-85
2022/11/08 00:44:34;;;;;;;38.63;19.63;;;7.50;99.90;;;;;;6233485;23;20005;-86
2022/11/08 00:47:00;;;;;;;33.85;19.27;;;7.50;99.90;;;;;;6208396;23;20027;-86
2022/11/08 00:49:26;;;;;;;38.60;18.42;;;7.50;99.90;;;;;;6239047;23;20004;-84
2022/11/08 00:51:51;;;;;;;39.55;19.67;;;7.50;99.90;;;;;;6241582;23;20031;-84
2022/11/08 00:54:19;;;;;;;39.28;19.90;;;7.50;99.90;;;;;;6251368;22;20036;-79
2022/11/08 00:56:46;;;;;;;35.38;19.75;;;7.40;99.90;;;;;;6262903;23;20004;-80
2022/11/08 00:59:13;;;;;;;35.42;19.45;;;7.40;99.90;;;;;;6260954;23;20012;-79
2022/11/08 01:01:40;;;;;;;34.53;19.52;;;7.40;99.90;;;;;;6255557;23;20023;-80
2022/11/08 01:04:07;;;;;;;40.65;19.90;;;7.40;99.90;;;;;;6256576;22;20022;-80
2022/11/08 01:06:34;;;;;;;35.90;19.85;;;7.40;99.90;;;;;;6257223;22;20000;-78
2022/11/08 01:09:00;;;;;;;40.92;20.88;;;7.40;99.90;;;;;;6256229;22;20011;-80
2022/11/08 01:11:27;;;;;;;42.60;19.88;;;7.40;99.90;;;;;;6254468;23;20008;-80
2022/11/08 01:13:56;;;;;;;42.17;19.98;;;7.30;99.90;;;;;;6257014;23;20008;-81
2022/11/08 01:16:24;;;;;;;37.33;19.65;;;7.30;99.90;;;;;;6257269;22;20023;-79
2022/11/08 01:18:52;;;;;;;35.50;19.77;;;7.30;99.90;;;;;;6253655;23;20012;-80
2022/11/08 01:21:18;;;;;;;38.50;19.42;;;7.30;99.90;;;;;;6256323;22;20127;-80
2022/11/08 01:23:45;;;;;;;36.85;20.27;;;7.30;99.90;;;;;;6257375;23;20064;-80
2022/11/08 01:26:20;;;;;;;37.10;18.92;;;7.30;99.90;;;;;;6257057;22;20000;-80
2022/11/08 01:28:47;;;;;;;42.67;20.73;;;7.30;99.90;;;;;;6258811;23;20004;-80
2022/11/08 01:31:15;;;;;;;38.60;19.75;;;7.30;99.90;;;;;;6265067;22;20000;-80
2022/11/08 01:33:41;;;;;;;37.13;19.80;;;7.30;99.90;;;;;;6263646;22;20052;-80
2022/11/08 01:36:13;;;;;;;38.97;19.58;;;7.30;99.90;;;;;;6268352;22;20016;-78
2022/11/08 01:38:39;;;;;;;40.00;20.15;;;7.30;99.90;;;;;;6261031;22;20008;-81
2022/11/08 01:41:05;;;;;;;35.22;19.88;;;7.20;99.90;;;;;;6261191;22;20027;-80
2022/11/08 01:43:43;;;;;;;42.17;21.73;;;7.20;99.90;;;;;;6262592;22;20004;-80
2022/11/08 01:46:09;;;;;;;39.95;21.42;;;7.20;99.90;;;;;;6261469;22;20015;-79
2022/11/08 01:48:43;;;;;;;36.38;19.85;;;7.20;99.90;;;;;;6262706;23;19996;-79
2022/11/08 01:51:14;;;;;;;39.42;20.45;;;7.10;99.90;;;;;;6262925;22;20303;-80
2022/11/08 01:53:40;;;;;;;40.42;22.02;;;7.10;99.90;;;;;;6262709;22;20081;-79
2022/11/08 01:56:09;;;;;;;44.65;22.38;;;7.10;99.90;;;;;;6261355;23;20046;-79
2022/11/08 01:58:36;;;;;;;40.97;21.35;;;7.10;99.90;;;;;;6262109;23;20350;-80
2022/11/08 02:01:02;;;;;;;40.15;20.70;;;7.10;99.90;;;;;;6263554;22;20000;-78
2022/11/08 02:03:32;;;;;;;42.63;21.40;;;7.10;99.90;;;;;;6261798;22;20007;-80
2022/11/08 02:05:59;;;;;;;41.55;20.30;;;7.10;99.90;;;;;;6264249;23;20026;-80
2022/11/08 02:08:31;;;;;;;34.85;20.17;;;7.10;99.90;;;;;;6262962;22;20056;-80
2022/11/08 02:10:57;;;;;;;44.20;20.92;;;7.10;99.90;;;;;;6262734;22;20031;-80
2022/11/08 02:13:26;;;;;;;38.10;20.23;;;7.10;99.90;;;;;;6265662;22;20000;-79
2022/11/08 02:15:52;;;;;;;40.95;20.50;;;7.10;99.90;;;;;;6263162;23;20023;-79
2022/11/08 02:18:21;;;;;;;39.70;20.27;;;7.10;99.90;;;;;;6259721;23;20016;-79
2022/11/08 02:20:58;;;;;;;35.03;19.95;;;7.00;99.90;;;;;;6262820;22;20012;-80
2022/11/08 02:23:47;;;;;;;41.88;21.95;;;7.10;99.90;;;;;;6264164;22;20000;-80
2022/11/08 02:26:15;;;;;;;40.10;20.17;;;7.10;99.90;;;;;;6239410;23;20064;-81
2022/11/08 02:28:46;;;;;;;39.28;20.50;;;7.10;99.90;;;;;;6256272;22;20002;-79
2022/11/08 02:31:17;;;;;;;41.97;20.23;;;7.10;99.90;;;;;;6256025;23;20071;-80
2022/11/08 02:33:44;;;;;;;39.25;19.77;;;7.10;99.90;;;;;;6257139;22;20015;-80
2022/11/08 02:36:14;;;;;;;35.40;19.13;;;7.10;99.90;;;;;;6238123;23;20011;-80
2022/11/08 02:38:45;;;;;;;43.05;19.85;;;7.10;99.90;;;;;;6261934;22;20047;-80
2022/11/08 02:41:11;;;;;;;38.33;19.60;;;7.10;99.90;;;;;;6259882;22;20056;-80
2022/11/08 02:43:37;;;;;;;39.72;19.80;;;7.10;99.90;;;;;;6261234;22;20022;-79
2022/11/08 02:46:03;;;;;;;41.15;19.83;;;7.00;99.90;;;;;;6261370;23;20258;-80
2022/11/08 02:48:29;;;;;;;38.15;19.45;;;7.10;99.90;;;;;;6233093;23;20008;-80
2022/11/08 02:50:55;;;;;;;37.78;18.98;;;7.00;99.90;;;;;;6257507;23;20008;-79
2022/11/08 02:53:20;;;;;;;42.28;18.80;;;7.00;99.90;;;;;;6256792;22;20084;-81
2022/11/08 02:55:46;;;;;;;37.38;19.42;;;7.00;99.90;;;;;;6260440;23;20012;-80
2022/11/08 02:58:12;;;;;;;37.53;20.35;;;7.00;99.90;;;;;;6236606;23;20027;-79
2022/11/08 03:00:39;;;;;;;49.60;19.95;;;7.00;99.90;;;;;;6237527;23;20030;-78
2022/11/08 03:03:05;;;;;;;41.10;18.63;;;6.90;99.90;;;;;;6263991;22;20027;-80
2022/11/08 03:05:31;;;;;;;42.72;20.33;;;6.90;99.90;;;;;;6254932;22;20000;-81
2022/11/08 03:07:56;;;;;;;36.85;19.67;;;7.00;99.90;;;;;;6254501;22;20389;-80
2022/11/08 03:10:24;;;;;;;32.33;18.00;;;7.00;99.90;;;;;;6253622;23;20000;-82
2022/11/08 03:13:02;;;;;;;34.97;18.67;;;7.00;99.90;;;;;;6255218;22;20011;-81
2022/11/08 03:15:28;;;;;;;36.80;19.30;;;7.00;99.90;;;;;;6256559;23;20004;-80
2022/11/08 03:17:55;;;;;;;37.13;18.55;;;6.90;99.90;;;;;;6259179;23;20007;-80
2022/11/08 03:20:21;;;;;;;39.47;19.35;;;6.90;99.90;;;;;;6258869;23;20008;-80
2022/11/08 03:22:46;;;;;;;42.10;19.33;;;6.90;99.90;;;;;;6260299;22;20450;-81
2022/11/08 03:25:12;;;;;;;42.67;19.55;;;6.80;99.90;;;;;;6265903;23;19992;-80
2022/11/08 03:27:38;;;;;;;34.55;17.98;;;6.90;99.90;;;;;;6270220;22;19985;-80
2022/11/08 03:30:06;;;;;;;38.40;20.08;;;6.90;99.90;;;;;;6269006;23;20008;-79
2022/11/08 03:32:31;;;;;;;38.70;19.85;;;6.90;99.90;;;;;;6269392;23;20011;-80
2022/11/08 03:35:00;;;;;;;40.50;19.67;;;6.90;99.90;;;;;;6268437;23;20008;-80
2022/11/08 03:37:26;;;;;;;45.15;20.77;;;6.90;99.90;;;;;;6270558;22;20015;-80
2022/11/08 03:39:52;;;;;;;42.15;21.23;;;6.90;99.90;;;;;;6271664;22;20039;-79
2022/11/08 03:42:17;;;;;;;43.25;21.73;;;6.90;99.90;;;;;;6272711;23;19980;-79
2022/11/08 03:44:43;;;;;;;46.45;22.25;;;6.90;99.90;;;;;;6268730;22;20016;-79
2022/11/08 03:47:09;;;;;;;43.70;21.02;;;6.80;99.90;;;;;;6266930;22;20001;-80
2022/11/08 03:49:35;;;;;;;45.42;24.02;;;6.80;99.90;;;;;;6261783;23;20008;-80
2022/11/08 03:52:01;;;;;;;49.20;23.27;;;6.80;99.90;;;;;;6267053;23;20072;-80
2022/11/08 03:54:26;;;;;;;48.40;23.23;;;6.80;99.90;;;;;;6267049;23;20011;-81
2022/11/08 03:56:52;;;;;;;47.67;23.92;;;6.80;99.90;;;;;;6261150;22;20030;-80
2022/11/08 03:59:18;;;;;;;47.72;24.05;;;6.70;99.90;;;;;;6260934;23;20007;-80
2022/11/08 04:01:43;;;;;;;46.97;24.58;;;6.70;99.90;;;;;;6260813;23;20400;-79
2022/11/08 04:04:09;;;;;;;49.47;24.48;;;6.70;99.90;;;;;;6262288;22;20004;-80
2022/11/08 04:06:35;;;;;;;51.15;25.63;;;6.70;99.90;;;;;;6258641;22;20000;-80
2022/11/08 04:09:01;;;;;;;53.97;25.92;;;6.70;99.90;;;;;;6255468;23;20004;-79
2022/11/08 04:16:55;;;;;;;65.13;27.87;;;6.60;99.90;;;;;;6256102;23;20511;-80
2022/11/08 04:22:06;;;;;;;51.10;26.23;;;6.60;99.90;;;;;;6255757;23;20318;-81
2022/11/08 04:24:32;;;;;;;54.67;27.27;;;6.60;99.90;;;;;;6254174;23;20065;-79
2022/11/08 04:26:58;;;;;;;57.28;28.48;;;6.60;99.90;;;;;;6256710;23;20000;-81
2022/11/08 04:29:24;;;;;;;58.45;28.38;;;6.60;99.90;;;;;;6264024;22;20004;-80
2022/11/08 04:31:49;;;;;;;57.33;26.42;;;6.60;99.90;;;;;;6259750;23;20032;-80
2022/11/08 04:34:15;;;;;;;59.15;27.48;;;6.60;99.90;;;;;;6256952;22;20000;-80
2022/11/08 04:36:41;;;;;;;63.83;29.08;;;6.60;99.90;;;;;;6258488;23;20000;-79
2022/11/08 04:39:07;;;;;;;66.53;29.50;;;6.50;99.90;;;;;;6255158;23;20000;-81
2022/11/08 04:41:33;;;;;;;74.60;30.63;;;6.50;99.90;;;;;;6253560;23;20008;-80
2022/11/08 04:43:58;;;;;;;73.95;31.80;;;6.50;99.90;;;;;;6256370;23;20079;-79
2022/11/08 04:46:27;;;;;;;67.22;31.73;;;6.50;99.90;;;;;;6255788;22;20005;-80
2022/11/08 04:48:54;;;;;;;71.30;30.30;;;6.50;99.90;;;;;;6255887;22;20004;-80
2022/11/08 04:51:26;;;;;;;60.95;29.50;;;6.50;99.90;;;;;;6227645;23;20019;-79
2022/11/08 04:53:53;;;;;;;53.17;26.25;;;6.40;99.90;;;;;;6254390;23;20047;-80
2022/11/08 04:56:20;;;;;;;50.40;22.83;;;6.40;99.90;;;;;;6254910;23;20441;-81
2022/11/08 04:58:51;;;;;;;46.63;21.92;;;6.40;99.90;;;;;;6254650;22;20007;-79
2022/11/08 05:01:20;;;;;;;42.70;20.40;;;6.40;99.90;;;;;;6263333;23;20024;-80
2022/11/08 05:03:47;;;;;;;37.38;19.45;;;6.40;99.90;;;;;;6266479;22;20008;-80
2022/11/08 05:06:16;;;;;;;38.35;18.67;;;6.30;99.90;;;;;;6265841;23;20055;-81
2022/11/08 05:08:42;;;;;;;35.50;18.15;;;6.30;99.90;;;;;;6265195;23;19985;-80
2022/11/08 05:11:13;;;;;;;37.55;18.88;;;6.20;99.90;;;;;;6265766;22;20004;-80
2022/11/08 05:13:40;;;;;;;38.55;19.63;;;6.10;99.90;;;;;;6267035;22;20023;-80
2022/11/08 05:16:09;;;;;;;39.75;19.83;;;6.10;99.90;;;;;;6263249;23;20008;-79
2022/11/08 05:18:35;;;;;;;39.95;19.73;;;6.00;99.90;;;;;;6265455;22;20012;-79
2022/11/08 05:23:47;;;;;;;40.35;20.50;;;5.90;99.90;;;;;;6261603;23;20430;-80
2022/11/08 05:26:15;;;;;;;44.97;20.05;;;5.90;99.90;;;;;;6263566;22;20000;-81
2022/11/08 05:28:41;;;;;;;41.47;20.80;;;5.80;99.90;;;;;;6262908;23;20080;-81
2022/11/08 05:31:07;;;;;;;42.90;21.40;;;5.80;99.90;;;;;;6266471;22;20004;-82
2022/11/08 05:33:33;;;;;;;41.55;20.73;;;5.70;99.90;;;;;;6266684;23;20008;-81
2022/11/08 05:36:07;;;;;;;41.17;20.25;;;5.70;99.90;;;;;;6268402;23;20007;-80
2022/11/08 05:38:33;;;;;;;40.25;21.33;;;5.80;99.90;;;;;;6269758;22;20001;-80
2022/11/08 05:41:10;;;;;;;43.30;22.38;;;5.80;99.90;;;;;;6267099;23;20052;-80
2022/11/08 05:43:36;;;;;;;41.53;19.90;;;5.80;99.90;;;;;;6266797;22;20382;-81
2022/11/08 05:46:02;;;;;;;44.30;21.13;;;5.80;99.90;;;;;;6267243;23;20024;-81
2022/11/08 05:48:28;;;;;;;46.30;21.33;;;5.90;99.90;;;;;;6265026;23;20035;-81
2022/11/08 05:50:54;;;;;;;41.40;20.67;;;5.90;99.90;;;;;;6252940;22;20004;-80
2022/11/08 05:53:20;;;;;;;45.38;22.30;;;5.90;99.90;;;;;;6264759;23;20019;-81
2022/11/08 05:55:46;;;;;;;52.55;22.88;;;6.00;99.90;;;;;;6239532;23;20015;-82
2022/11/08 05:58:12;;;;;;;53.00;24.02;;;6.00;99.90;;;;;;6232112;23;20071;-80
2022/11/08 06:00:37;;;;;;;57.22;24.08;;;5.90;99.90;;;;;;6246361;22;20085;-80
2022/11/08 06:03:04;;;;;;;66.45;27.20;;;5.90;99.90;;;;;;6246379;23;20028;-80
2022/11/08 06:05:31;;;;;;;59.25;24.70;;;5.90;99.90;;;;;;6247485;23;20072;-78
2022/11/08 06:07:57;;;;;;;62.22;26.80;;;6.00;99.90;;;;;;6251176;22;20008;-79
2022/11/08 06:10:23;;;;;;;75.97;28.58;;;6.00;99.90;;;;;;6255572;23;19996;-79
2022/11/08 06:12:49;;;;;;;76.75;28.17;;;6.10;99.90;;;;;;6253650;23;20014;-78
2022/11/08 06:15:15;;;;;;;78.03;28.55;;;6.10;99.90;;;;;;6257282;23;20024;-80
2022/11/08 06:17:41;;;;;;;67.50;27.27;;;6.10;99.90;;;;;;6258302;22;20346;-79
2022/11/08 06:20:08;;;;;;;69.57;28.02;;;6.10;99.90;;;;;;6256878;23;19996;-80
2022/11/08 06:22:34;;;;;;;87.60;30.08;;;6.10;99.90;;;;;;6256673;22;20004;-79
2022/11/08 06:25:01;;;;;;;94.03;30.92;;;6.20;99.90;;;;;;6257871;23;20389;-80
2022/11/08 06:27:27;;;;;;;84.57;30.02;;;6.20;99.90;;;;;;6255368;23;20000;-80
2022/11/08 06:29:53;;;;;;;113.55;32.78;;;6.30;99.90;;;;;;6253185;22;20465;-78
2022/11/08 06:32:19;;;;;;;92.35;31.13;;;6.30;99.90;;;;;;6250059;23;20064;-78
2022/11/08 06:34:45;;;;;;;95.70;32.10;;;6.20;99.90;;;;;;6250425;23;20087;-78
2022/11/08 06:37:11;;;;;;;101.22;33.67;;;6.30;99.90;;;;;;6259966;23;20015;-77
2022/11/08 06:39:37;;;;;;;91.28;32.30;;;6.30;99.90;;;;;;6263230;22;20001;-78
2022/11/08 06:42:03;;;;;;;105.50;35.38;;;6.30;99.90;;;;;;6262438;22;20010;-81
2022/11/08 06:44:29;;;;;;;98.78;34.92;;;6.40;99.90;;;;;;6252602;23;20043;-79
2022/11/08 06:46:55;;;;;;;104.95;34.90;;;6.40;99.90;;;;;;6252416;23;20008;-80
2022/11/08 06:49:22;;;;;;;97.25;34.30;;;6.40;99.90;;;;;;6253166;23;20103;-80
2022/11/08 06:51:49;;;;;;;113.60;35.97;;;6.50;99.90;;;;;;6253382;22;20039;-79
2022/11/08 06:56:45;;;;;;;124.68;38.80;;;6.50;99.90;;;;;;6240506;23;20020;-87
2022/11/08 06:59:12;;;;;;;121.93;40.08;;;6.50;99.90;;;;;;6212975;23;20004;-88
2022/11/08 07:01:38;;;;;;;112.97;39.35;;;6.60;99.90;;;;;;6235672;23;20012;-88
2022/11/08 07:04:04;;;;;;;127.22;42.97;;;6.60;99.90;;;;;;6260844;23;20052;-88
2022/11/08 07:06:30;;;;;;;115.97;40.13;;;6.60;99.90;;;;;;6216941;23;20063;-89
2022/11/08 07:08:56;;;;;;;128.18;41.40;;;6.60;99.90;;;;;;6240951;23;20000;-88
2022/11/08 07:11:38;;;;;;;116.35;40.13;;;6.60;99.90;;;;;;6236189;23;20123;-89
2022/11/08 07:14:28;;;;;;;111.70;39.38;;;6.70;99.90;;;;;;6235363;23;20008;-89
2022/11/08 07:17:00;;;;;;;116.22;38.58;;;6.80;99.90;;;;;;6233992;23;20011;-87
2022/11/08 07:19:29;;;;;;;108.93;39.10;;;6.80;99.90;;;;;;6259766;23;20004;-88
2022/11/08 07:21:57;;;;;;;147.23;39.70;;;6.90;99.90;;;;;;6259767;23;20004;-89
2022/11/08 07:24:29;;;;;;;125.88;41.38;;;6.90;99.90;;;;;;6233335;23;20061;-88
2022/11/08 07:27:31;;;;;;;126.05;40.72;;;6.80;99.90;;;;;;6260626;23;20430;-90
2022/11/08 07:30:00;;;;;;;111.05;39.92;;;6.80;99.90;;;;;;6260188;22;20008;-89
2022/11/08 07:32:31;;;;;;;122.63;39.17;;;6.90;99.90;;;;;;6244124;23;20000;-87
2022/11/08 07:35:00;;;;;;;117.38;38.95;;;7.00;99.90;;;;;;6222045;22;20040;-87
2022/11/08 07:37:34;;;;;;;115.82;39.53;;;7.00;99.90;;;;;;6248846;22;20003;-88
2022/11/08 07:40:00;;;;;;;121.00;40.10;;;7.10;99.90;;;;;;6273084;22;20052;-87
2022/11/08 07:42:30;;;;;;;111.97;40.25;;;7.10;99.90;;;;;;6248851;22;19993;-87
2022/11/08 07:45:06;;;;;;;104.80;38.15;;;7.10;99.90;;;;;;6225668;23;20007;-86
2022/11/08 07:47:32;;;;;;;108.25;37.78;;;7.10;99.90;;;;;;6223310;22;20012;-86
2022/11/08 07:49:58;;;;;;;107.90;37.95;;;7.10;99.90;;;;;;6247456;22;20004;-85
2022/11/08 07:52:24;;;;;;;107.85;37.92;;;7.20;99.90;;;;;;6273801;22;20068;-86
2022/11/08 07:54:50;;;;;;;103.95;39.65;;;7.20;99.90;;;;;;6247576;22;20011;-86
2022/11/08 07:57:16;;;;;;;92.75;33.88;;;7.30;99.90;;;;;;6247654;23;20007;-87
2022/11/08 07:59:42;;;;;;;88.03;34.30;;;7.20;99.90;;;;;;6222882;22;20007;-86
2022/11/08 08:02:09;;;;;;;89.88;34.72;;;7.30;99.90;;;;;;6223443;22;20003;-85
2022/11/08 08:04:35;;;;;;;89.20;34.50;;;7.30;99.90;;;;;;6248325;22;20052;-87
2022/11/08 08:07:01;;;;;;;90.20;36.47;;;7.40;99.90;;;;;;6248492;22;20012;-89
2022/11/08 08:09:27;;;;;;;83.25;33.40;;;7.40;99.90;;;;;;6248946;22;20006;-88
2022/11/08 08:11:54;;;;;;;81.65;33.38;;;7.50;99.90;;;;;;6223111;23;20003;-89
2022/11/08 08:14:20;;;;;;;77.78;32.40;;;7.60;99.90;;;;;;6274559;22;20008;-88
2022/11/08 08:16:46;;;;;;;81.63;32.75;;;7.60;99.90;;;;;;6223513;22;20054;-87
2022/11/08 08:19:12;;;;;;;74.80;31.38;;;7.60;99.90;;;;;;6248607;22;20012;-88
2022/11/08 08:21:38;;;;;;;70.97;32.13;;;7.60;99.90;;;;;;6223086;22;20016;-89
2022/11/08 08:24:08;;;;;;;75.90;30.63;;;7.60;99.90;;;;;;6245692;22;19999;-89
2022/11/08 08:26:34;;;;;;;68.70;31.00;;;7.50;99.90;;;;;;6223803;22;20010;-87
2022/11/08 08:28:59;;;;;;;78.82;33.17;;;7.50;99.90;;;;;;6248465;22;19992;-85
2022/11/08 08:31:25;;;;;;;75.25;30.55;;;7.50;99.90;;;;;;6271890;22;20008;-85
2022/11/08 08:33:51;;;;;;;66.47;30.30;;;7.50;99.90;;;;;;6272544;22;19988;-88
2022/11/08 08:36:17;;;;;;;76.63;32.42;;;7.60;99.90;;;;;;6247261;23;20012;-88
2022/11/08 08:38:43;;;;;;;74.95;32.58;;;7.60;99.90;;;;;;6239787;23;20059;-89
2022/11/08 08:41:09;;;;;;;74.43;30.17;;;7.60;99.90;;;;;;6232639;23;20013;-89
2022/11/08 08:43:35;;;;;;;71.50;31.10;;;7.70;99.90;;;;;;6239987;23;20095;-88
2022/11/08 08:46:02;;;;;;;72.68;31.00;;;7.70;99.90;;;;;;6231767;23;20110;-88
2022/11/08 08:48:28;;;;;;;76.43;31.90;;;7.80;99.90;;;;;;6233608;23;20000;-87
2022/11/08 08:50:55;;;;;;;74.13;31.02;;;7.70;99.90;;;;;;6209344;23;20004;-86
2022/11/08 08:53:20;;;;;;;70.97;31.90;;;7.70;99.90;;;;;;6262007;23;20061;-88
2022/11/08 08:55:52;;;;;;;77.57;32.85;;;7.70;99.90;;;;;;6233985;23;20369;-88
2022/11/08 08:58:20;;;;;;;81.55;34.92;;;7.70;99.90;;;;;;6234357;23;20004;-89
2022/11/08 09:00:45;;;;;;;82.78;36.00;;;7.70;99.90;;;;;;6261397;23;20010;-86
2022/11/08 09:03:12;;;;;;;70.97;31.88;;;7.70;99.90;;;;;;6260037;23;20462;-87
2022/11/08 09:05:42;;;;;;;68.03;28.95;;;7.70;99.90;;;;;;6262304;23;20000;-87
2022/11/08 09:08:13;;;;;;;71.68;29.02;;;7.70;99.90;;;;;;6238732;23;20456;-88
2022/11/08 09:10:40;;;;;;;72.25;31.33;;;7.70;99.90;;;;;;6242140;23;20008;-88
2022/11/08 09:13:05;;;;;;;72.88;29.45;;;7.70;99.90;;;;;;6220396;22;19995;-87
2022/11/08 09:15:32;;;;;;;63.13;29.30;;;7.80;99.90;;;;;;6247211;22;19996;-86
2022/11/08 09:17:58;;;;;;;63.85;28.95;;;7.90;99.90;;;;;;6247122;22;20023;-87
2022/11/08 09:20:24;;;;;;;71.97;28.65;;;7.90;99.90;;;;;;6242692;23;20438;-89
2022/11/08 09:22:50;;;;;;;69.80;30.38;;;8.00;99.90;;;;;;6238691;23;19988;-87
2022/11/08 09:25:17;;;;;;;69.75;29.15;;;8.00;99.90;;;;;;6244136;22;20030;-85
2022/11/08 09:27:42;;;;;;;63.97;28.00;;;8.00;99.90;;;;;;6242192;23;20000;-89
2022/11/08 09:30:08;;;;;;;63.75;29.42;;;8.10;99.90;;;;;;6261562;23;20008;-87
2022/11/08 09:32:34;;;;;;;61.65;28.25;;;8.10;99.90;;;;;;6262114;23;20008;-87
2022/11/08 09:35:00;;;;;;;66.93;29.70;;;8.10;99.90;;;;;;6209758;23;20015;-88
2022/11/08 09:37:27;;;;;;;74.40;29.70;;;8.10;99.90;;;;;;6262778;23;20011;-86
2022/11/08 09:39:53;;;;;;;65.95;29.20;;;8.10;99.90;;;;;;6233643;23;20012;-88
2022/11/08 09:42:34;;;;;;;67.30;30.33;;;8.10;99.90;;;;;;6262096;23;20047;-87
2022/11/08 09:45:12;;;;;;;67.18;29.00;;;8.10;99.90;;;;;;6209722;23;20004;-88
2022/11/08 09:47:40;;;;;;;67.03;30.20;;;8.20;99.90;;;;;;6260287;23;20377;-87
2022/11/08 09:50:17;;;;;;;67.68;28.55;;;8.20;99.90;;;;;;6233526;23;20044;-86
2022/11/08 09:52:47;;;;;;;65.10;28.48;;;8.10;99.90;;;;;;6233628;23;20107;-88
2022/11/08 09:55:59;;;;;;;59.00;27.00;;;8.10;99.90;;;;;;6232272;23;20035;-86
2022/11/08 09:58:43;;;;;;;70.28;29.20;;;8.00;99.90;;;;;;6252768;22;20008;-85
2022/11/08 10:01:11;;;;;;;66.93;31.25;;;7.90;99.90;;;;;;6265309;23;20012;-84
2022/11/08 10:03:37;;;;;;;59.88;29.08;;;7.80;99.90;;;;;;6210252;23;20011;-86
2022/11/08 10:06:29;;;;;;;66.93;31.20;;;7.80;99.90;;;;;;6221221;23;20016;-86
2022/11/08 10:09:39;;;;;;;70.30;30.45;;;7.90;99.90;;;;;;6246407;23;19988;-90
2022/11/08 10:12:15;;;;;;;71.40;30.85;;;8.00;99.90;;;;;;6193588;23;20473;-86
2022/11/08 10:15:03;;;;;;;66.28;31.92;;;8.00;99.90;;;;;;6214974;23;20008;-87
2022/11/08 10:17:49;;;;;;;82.65;32.00;;;8.00;99.90;;;;;;6263793;23;20008;-87
2022/11/08 10:20:39;;;;;;;81.05;31.42;;;8.00;99.90;;;;;;6262395;23;20401;-86
2022/11/08 10:23:23;;;;;;;72.40;31.58;;;8.00;99.90;;;;;;6211785;23;20008;-85
2022/11/08 10:25:59;;;;;;;66.03;29.92;;;8.00;99.90;;;;;;6264790;23;20018;-87
2022/11/08 10:28:35;;;;;;;77.35;31.17;;;8.00;99.90;;;;;;6262362;23;20028;-88
2022/11/08 10:31:02;;;;;;;73.82;32.67;;;8.10;99.90;;;;;;6262649;23;20004;-87
2022/11/08 10:33:40;;;;;;;69.55;29.33;;;8.20;99.90;;;;;;6233871;23;20004;-88
2022/11/08 10:36:12;;;;;;;74.00;29.98;;;8.20;99.90;;;;;;6235620;23;20011;-87
2022/11/08 10:39:11;;;;;;;64.20;29.42;;;8.20;99.90;;;;;;6234796;23;20030;-89
2022/11/08 10:42:59;;;;;;;71.50;29.08;;;8.30;99.90;;;;;;6234504;23;20039;-87
2022/11/08 10:45:25;;;;;;;65.03;28.48;;;8.30;99.90;;;;;;6197168;23;20004;-88
2022/11/08 10:48:25;;;;;;;64.05;28.80;;;8.40;99.90;;;;;;6261533;23;20023;-87
2022/11/08 10:50:51;;;;;;;67.30;30.48;;;8.40;99.90;;;;;;6213473;23;20022;-88
2022/11/08 10:53:26;;;;;;;67.70;31.00;;;8.30;99.90;;;;;;6240540;23;20027;-87
2022/11/08 10:55:57;;;;;;;;;;;8.20;99.90;;;;;;6238869;23;20020;-88
2022/11/08 10:58:42;;;;;;;75.40;30.65;;;8.20;99.90;;;;;;6238257;23;19908;-89
2022/11/08 11:01:24;;;;;;;71.18;32.25;;;8.30;99.90;;;;;;6238597;23;20032;-89
2022/11/08 11:04:24;;;;;;;72.40;31.33;;;8.20;99.90;;;;;;6216223;23;20000;-87
2022/11/08 11:07:22;;;;;;;68.93;30.02;;;8.30;99.90;;;;;;6236608;23;20008;-87
2022/11/08 11:09:51;;;;;;;74.50;31.65;;;8.40;99.90;;;;;;6235475;23;20008;-88
2022/11/08 11:12:33;;;;;;;73.82;31.25;;;8.40;99.90;;;;;;6208143;23;20073;-88
2022/11/08 11:15:12;;;;;;;75.35;31.70;;;8.40;99.90;;;;;;6213604;23;20103;-89
2022/11/08 11:17:54;;;;;;;71.05;32.55;;;8.40;99.90;;;;;;6214601;23;20004;-89
2022/11/08 11:20:40;;;;;;;63.33;28.95;;;8.50;99.90;;;;;;6240153;23;20012;-88
2022/11/08 11:23:13;;;;;;;60.45;29.13;;;8.50;99.90;;;;;;6241670;23;20019;-88
2022/11/08 11:25:57;;;;;;;61.13;28.55;;;8.50;99.90;;;;;;6236931;23;20008;-88
2022/11/08 11:28:24;;;;;;;61.55;28.80;;;8.50;99.90;;;;;;6262581;23;20013;-88
2022/11/08 11:31:02;;;;;;;57.95;27.38;;;8.50;99.90;;;;;;6239789;23;20031;-86
2022/11/08 11:33:45;;;;;;;56.60;27.50;;;8.60;99.90;;;;;;6268045;22;20017;-87
2022/11/08 11:36:22;;;;;;;57.13;27.35;;;8.60;99.90;;;;;;6242826;23;20028;-88
2022/11/08 11:39:13;;;;;;;64.72;28.52;;;8.70;99.90;;;;;;6242402;23;20020;-86
2022/11/08 11:42:02;;;;;;;53.97;26.58;;;8.70;99.90;;;;;;6244153;23;20012;-85
2022/11/08 11:45:00;;;;;;;57.78;28.17;;;8.80;99.90;;;;;;6243311;23;20077;-85
2022/11/08 11:47:53;;;;;;;;;;;;;;;;;;;;;
2022/11/08 11:50:44;;;;;;;66.47;29.23;;;8.80;99.90;;;;;;6242911;23;20019;-86
2022/11/08 11:53:31;;;;;;;60.60;28.65;;;8.80;99.90;;;;;;6243100;23;20027;-87
2022/11/08 11:56:45;;;;;;;59.10;27.20;;;8.90;99.90;;;;;;6266771;22;20007;-87
2022/11/08 11:59:34;;;;;;;57.55;27.73;;;8.90;99.90;;;;;;6266783;22;20039;-88
2022/11/08 12:02:50;;;;;;;54.63;25.63;;;8.90;99.90;;;;;;6241299;23;20044;-87
2022/11/08 12:05:35;;;;;;;56.38;25.50;;;9.00;99.90;;;;;;6242269;23;20008;-87
2022/11/08 12:08:08;;;;;;;;;;;9.10;99.90;;;;;;6242044;23;20048;-86
2022/11/08 12:10:59;;;;;;;46.50;24.00;;;9.30;99.90;;;;;;6240609;23;19931;-85
2022/11/08 12:14:15;;;;;;;49.50;23.92;;;9.30;99.90;;;;;;6234195;23;20055;-86
2022/11/08 12:16:55;;;;;;;53.20;25.40;;;9.40;99.90;;;;;;6195817;23;20016;-86
2022/11/08 12:19:33;;;;;;;45.47;23.83;;;9.30;99.90;;;;;;6257278;23;20001;-86
2022/11/08 12:22:29;;;;;;;53.22;24.88;;;9.30;99.90;;;;;;6229384;23;20008;-86
2022/11/08 12:25:03;;;;;;;48.90;24.45;;;9.40;99.90;;;;;;6227829;23;20490;-86
2022/11/08 12:27:58;;;;;;;49.53;24.17;;;9.40;99.90;;;;;;6239323;23;20035;-86
2022/11/08 12:30:52;;;;;;;46.03;23.40;;;9.40;99.90;;;;;;6244197;23;20031;-84
2022/11/08 12:33:42;;;;;;;51.08;24.42;;;9.60;99.90;;;;;;6248442;22;20016;-84
2022/11/08 12:36:26;;;;;;;52.20;25.17;;;9.60;99.90;;;;;;6234406;23;20096;-86
2022/11/08 12:39:10;;;;;;;44.92;22.45;;;9.70;99.90;;;;;;6233286;23;20035;-88
2022/11/08 12:41:44;;;;;;;44.67;22.48;;;9.80;99.90;;;;;;6235390;23;20073;-86
2022/11/08 12:44:37;;;;;;;47.85;24.38;;;9.90;99.90;;;;;;6233494;23;20004;-86
2022/11/08 12:47:35;;;;;;;52.08;24.98;;;9.90;99.90;;;;;;6236271;23;20012;-87
2022/11/08 12:50:32;;;;;;;51.65;25.25;;;9.80;99.90;;;;;;6168693;23;20000;-86
2022/11/08 12:53:38;;;;;;;60.63;25.55;;;9.80;99.90;;;;;;6259218;23;20053;-86
2022/11/08 12:56:10;;;;;;;55.38;25.92;;;9.80;99.90;;;;;;6249168;22;20012;-80
2022/11/08 12:58:48;;;;;;;56.45;24.92;;;9.80;99.90;;;;;;6236316;23;20341;-79
2022/11/08 13:01:17;;;;;;;56.95;25.90;;;9.90;99.90;;;;;;6263469;23;20008;-79
2022/11/08 13:03:44;;;;;;;61.35;26.35;;;10.00;99.90;;;;;;6264447;23;20064;-80
2022/11/08 13:06:24;;;;;;;54.95;26.60;;;10.00;99.90;;;;;;6265044;23;20068;-78
2022/11/08 13:09:08;;;;;;;53.20;26.20;;;10.00;99.90;;;;;;6236625;23;20054;-79
2022/11/08 13:11:54;;;;;;;57.83;26.25;;;10.10;99.90;;;;;;6236798;23;20091;-78
2022/11/08 13:14:22;;;;;;;52.08;25.05;;;10.10;99.90;;;;;;6263063;23;20500;-79
2022/11/08 13:17:06;;;;;;;52.58;25.48;;;10.20;99.90;;;;;;6233871;23;20083;-80
2022/11/08 13:19:52;;;;;;;58.53;26.63;;;10.30;99.90;;;;;;6259429;23;20004;-80
2022/11/08 13:22:31;;;;;;;53.53;26.38;;;10.40;99.90;;;;;;6261657;23;20295;-77
2022/11/08 13:25:04;;;;;;;49.25;23.95;;;10.40;99.90;;;;;;6261487;23;20027;-80